createdAt,value
2023-04-27T00:01:43.393Z,92.70
2023-04-27T00:04:10.370Z,92.60
2023-04-27T00:06:37.277Z,92.60
2023-04-27T00:09:04.556Z,92.50
2023-04-27T00:11:31.829Z,92.60
2023-04-27T00:13:58.726Z,92.60
2023-04-27T00:16:26.276Z,92.50
2023-04-27T00:18:53.162Z,92.60
2023-04-27T00:21:20.016Z,92.50
2023-04-27T00:23:46.813Z,92.60
2023-04-27T00:26:13.658Z,92.40
2023-04-27T00:28:40.460Z,92.40
2023-04-27T00:31:07.261Z,92.30
2023-04-27T00:33:34.105Z,92.30
2023-04-27T00:36:01.701Z,92.40
2023-04-27T00:38:30.043Z,92.30
2023-04-27T00:41:07.564Z,92.50
2023-04-27T00:43:43.619Z,92.50
2023-04-27T00:46:13.789Z,92.50
2023-04-27T00:48:41.630Z,92.40
2023-04-27T00:51:08.742Z,92.50
2023-04-27T00:53:37.569Z,92.60
2023-04-27T00:56:06.727Z,92.60
2023-04-27T00:58:33.638Z,92.70
2023-04-27T01:01:01.127Z,92.80
2023-04-27T01:03:28.105Z,92.80
2023-04-27T01:05:56.770Z,92.70
2023-04-27T01:08:23.701Z,92.80
2023-04-27T01:10:50.722Z,92.80
2023-04-27T01:13:17.752Z,92.90
2023-04-27T01:15:44.589Z,92.90
2023-04-27T01:18:11.464Z,92.90
2023-04-27T01:20:38.643Z,92.90
2023-04-27T01:23:05.841Z,92.90
2023-04-27T01:25:32.686Z,93.20
2023-04-27T01:27:59.639Z,93.00
2023-04-27T01:30:28.541Z,92.90
2023-04-27T01:32:56.389Z,92.90
2023-04-27T01:35:24.747Z,92.90
2023-04-27T01:37:52.671Z,92.80
2023-04-27T01:40:19.590Z,92.80
2023-04-27T01:42:46.391Z,92.80
2023-04-27T01:45:13.306Z,92.80
2023-04-27T01:47:41.028Z,92.80
2023-04-27T01:50:08.342Z,92.80
2023-04-27T01:52:35.217Z,92.80
2023-04-27T01:55:02.040Z,92.80
2023-04-27T01:57:28.882Z,92.80
2023-04-27T01:59:55.731Z,92.80
2023-04-27T02:02:22.762Z,92.90
2023-04-27T02:04:49.693Z,92.90
2023-04-27T02:07:16.647Z,92.90
2023-04-27T02:09:43.454Z,92.90
2023-04-27T02:12:10.526Z,92.90
2023-04-27T02:14:37.402Z,92.90
2023-04-27T02:17:04.232Z,92.90
2023-04-27T02:19:30.980Z,92.90
2023-04-27T02:21:57.764Z,92.90
2023-04-27T02:24:24.645Z,92.90
2023-04-27T02:26:51.477Z,93.00
2023-04-27T02:29:18.514Z,92.90
2023-04-27T02:31:46.348Z,93.00
2023-04-27T02:34:13.264Z,93.00
2023-04-27T02:36:40.156Z,92.90
2023-04-27T02:39:06.893Z,93.00
2023-04-27T02:41:33.726Z,92.90
2023-04-27T02:44:00.636Z,92.90
2023-04-27T02:46:27.544Z,92.80
2023-04-27T02:48:56.006Z,92.80
2023-04-27T02:51:22.818Z,92.70
2023-04-27T02:53:49.752Z,92.90
2023-04-27T02:56:16.667Z,92.90
2023-04-27T02:58:44.840Z,92.90
2023-04-27T03:01:12.132Z,92.90
2023-04-27T03:03:39.125Z,92.90
2023-04-27T03:06:07.122Z,92.90
2023-04-27T03:08:33.914Z,92.90
2023-04-27T03:11:00.718Z,92.90
2023-04-27T03:13:28.245Z,92.90
2023-04-27T03:15:55.048Z,92.90
2023-04-27T03:18:21.909Z,92.80
2023-04-27T03:20:48.758Z,92.80
2023-04-27T03:23:15.639Z,92.80
2023-04-27T03:25:42.410Z,92.70
2023-04-27T03:28:09.261Z,92.70
2023-04-27T03:30:36.064Z,92.60
2023-04-27T03:33:03.398Z,92.70
2023-04-27T03:35:30.349Z,92.70
2023-04-27T03:37:57.116Z,92.70
2023-04-27T03:40:24.018Z,92.70
2023-04-27T03:42:50.927Z,92.80
2023-04-27T03:45:19.189Z,92.70
2023-04-27T03:47:46.072Z,92.70
2023-04-27T03:50:12.884Z,92.70
2023-04-27T03:52:39.694Z,92.70
2023-04-27T03:55:07.173Z,92.70
2023-04-27T03:57:34.021Z,92.70
2023-04-27T04:00:01.184Z,92.70
2023-04-27T04:02:28.066Z,92.70
2023-04-27T04:04:55.132Z,92.60
2023-04-27T04:07:22.000Z,92.60
2023-04-27T04:09:48.791Z,92.60
2023-04-27T04:12:15.663Z,92.50
2023-04-27T04:14:42.896Z,92.50
2023-04-27T04:17:10.948Z,92.50
2023-04-27T04:19:37.903Z,92.60
2023-04-27T04:22:04.973Z,92.70
2023-04-27T04:24:31.856Z,92.80
2023-04-27T04:26:58.811Z,92.70
2023-04-27T04:29:25.768Z,92.70
2023-04-27T04:31:52.799Z,92.80
2023-04-27T04:34:20.036Z,92.80
2023-04-27T04:36:47.241Z,92.80
2023-04-27T04:39:14.944Z,92.90
2023-04-27T04:41:42.058Z,92.90
2023-04-27T04:44:08.827Z,92.90
2023-04-27T04:46:37.701Z,92.80
2023-04-27T04:49:05.120Z,92.90
2023-04-27T04:51:31.963Z,92.90
2023-04-27T04:54:01.087Z,92.80
2023-04-27T04:56:28.575Z,92.80
2023-04-27T04:58:55.549Z,92.80
2023-04-27T05:01:22.408Z,92.80
2023-04-27T05:03:49.331Z,92.80
2023-04-27T05:06:16.391Z,92.70
2023-04-27T05:08:43.355Z,92.80
2023-04-27T05:11:11.349Z,92.90
2023-04-27T05:13:38.928Z,92.90
2023-04-27T05:16:06.736Z,93.00
2023-04-27T05:18:35.898Z,93.10
2023-04-27T05:21:03.235Z,93.10
2023-04-27T05:23:30.032Z,93.20
2023-04-27T05:25:56.893Z,93.20
2023-04-27T05:28:23.718Z,93.30
2023-04-27T05:30:50.544Z,93.30
2023-04-27T05:33:17.317Z,93.40
2023-04-27T05:35:44.164Z,93.40
2023-04-27T05:38:11.010Z,93.50
2023-04-27T05:40:37.828Z,93.50
2023-04-27T05:43:05.610Z,93.60
2023-04-27T05:45:32.750Z,93.60
2023-04-27T05:47:59.629Z,93.60
2023-04-27T05:50:26.516Z,93.60
2023-04-27T05:52:53.273Z,93.70
2023-04-27T05:55:20.220Z,93.80
2023-04-27T05:57:51.702Z,93.80
2023-04-27T06:00:24.962Z,93.80
2023-04-27T06:02:51.841Z,93.90
2023-04-27T06:05:18.869Z,93.90
2023-04-27T06:07:45.764Z,93.90
2023-04-27T06:10:13.173Z,93.90
2023-04-27T06:12:40.000Z,93.90
2023-04-27T06:15:10.671Z,93.90
2023-04-27T06:17:38.935Z,93.70
2023-04-27T06:20:07.379Z,93.50
2023-04-27T06:22:34.726Z,93.40
2023-04-27T06:25:01.540Z,93.10
2023-04-27T06:27:28.379Z,93.10
2023-04-27T06:29:55.295Z,93.10
2023-04-27T06:32:22.099Z,93.20
2023-04-27T06:34:50.157Z,93.20
2023-04-27T06:37:17.320Z,93.10
2023-04-27T06:39:44.812Z,93.00
2023-04-27T06:42:12.017Z,92.70
2023-04-27T06:44:39.296Z,92.50
2023-04-27T06:47:06.507Z,91.70
2023-04-27T06:49:33.361Z,91.90
2023-04-27T06:52:03.384Z,91.20
2023-04-27T06:54:30.307Z,91.30
2023-04-27T06:56:57.082Z,90.50
2023-04-27T06:59:23.903Z,90.80
2023-04-27T07:01:51.693Z,91.00
2023-04-27T07:04:18.733Z,90.70
2023-04-27T07:06:45.898Z,90.90
2023-04-27T07:09:24.004Z,89.20
2023-04-27T07:11:53.781Z,87.40
2023-04-27T07:14:20.917Z,86.30
2023-04-27T07:16:47.806Z,86.10
2023-04-27T07:19:14.847Z,86.20
2023-04-27T07:21:41.886Z,85.50
2023-04-27T07:24:08.906Z,84.80
2023-04-27T07:26:36.500Z,85.30
2023-04-27T07:29:11.204Z,83.60
2023-04-27T07:31:46.453Z,85.70
2023-04-27T07:34:13.417Z,85.20
2023-04-27T07:36:40.261Z,84.50
2023-04-27T07:39:08.066Z,85.50
2023-04-27T07:41:35.583Z,84.40
2023-04-27T07:44:02.621Z,81.40
2023-04-27T07:46:31.700Z,83.10
2023-04-27T07:49:00.349Z,84.10
2023-04-27T07:51:28.756Z,82.70
2023-04-27T07:53:56.302Z,82.20
2023-04-27T07:56:23.191Z,82.10
2023-04-27T07:58:49.978Z,81.70
2023-04-27T08:01:18.511Z,82.30
2023-04-27T08:03:47.386Z,80.20
2023-04-27T08:06:15.033Z,79.30
2023-04-27T08:08:42.181Z,79.20
2023-04-27T08:11:13.042Z,80.70
2023-04-27T08:13:39.892Z,78.90
2023-04-27T08:16:07.197Z,79.40
2023-04-27T08:18:34.509Z,79.00
2023-04-27T08:21:01.470Z,80.00
2023-04-27T08:23:29.434Z,77.80
2023-04-27T08:25:56.508Z,77.40
2023-04-27T08:28:23.483Z,76.60
2023-04-27T08:30:50.642Z,76.60
2023-04-27T08:33:17.436Z,74.30
2023-04-27T08:35:44.216Z,75.50
2023-04-27T08:38:11.280Z,75.40
2023-04-27T08:40:43.746Z,74.80
2023-04-27T08:43:10.700Z,75.50
2023-04-27T08:45:37.950Z,75.10
2023-04-27T08:48:05.169Z,74.50
2023-04-27T08:50:32.511Z,74.10
2023-04-27T08:52:59.830Z,73.00
2023-04-27T08:55:26.799Z,73.40
2023-04-27T08:58:01.302Z,73.10
2023-04-27T09:00:42.749Z,73.80
2023-04-27T09:03:24.114Z,73.30
2023-04-27T09:06:03.735Z,73.50
2023-04-27T09:09:02.965Z,75.00
2023-04-27T09:11:36.319Z,73.70
2023-04-27T09:14:19.208Z,73.70
2023-04-27T09:16:57.357Z,73.40
2023-04-27T09:19:29.420Z,75.60
2023-04-27T09:22:08.662Z,74.10
2023-04-27T09:24:35.846Z,73.20
2023-04-27T09:27:03.604Z,73.30
2023-04-27T09:29:38.096Z,74.90
2023-04-27T09:32:20.510Z,75.80
2023-04-27T09:34:47.339Z,75.50
2023-04-27T09:37:15.589Z,73.40
2023-04-27T09:39:43.279Z,74.30
2023-04-27T09:42:12.333Z,74.60
2023-04-27T09:44:39.160Z,73.40
2023-04-27T09:47:07.418Z,73.40
2023-04-27T09:49:35.903Z,71.40
2023-04-27T09:52:02.798Z,73.00
2023-04-27T09:54:34.114Z,73.40
2023-04-27T09:57:38.015Z,73.60
2023-04-27T10:00:40.999Z,73.70
2023-04-27T10:03:28.454Z,70.80
2023-04-27T10:06:48.062Z,71.50
2023-04-27T10:09:17.340Z,73.00
2023-04-27T10:11:44.606Z,73.60
2023-04-27T10:14:18.491Z,74.00
2023-04-27T10:16:55.097Z,73.10
2023-04-27T10:19:23.762Z,72.60
2023-04-27T10:22:07.878Z,72.10
2023-04-27T10:24:40.709Z,72.40
2023-04-27T10:27:16.021Z,70.30
2023-04-27T10:29:46.111Z,70.40
2023-04-27T10:32:19.081Z,72.20
2023-04-27T10:34:47.637Z,72.50
2023-04-27T10:37:15.582Z,71.90
2023-04-27T10:39:49.418Z,72.50
2023-04-27T10:42:30.841Z,71.90
2023-04-27T10:44:59.046Z,73.00
2023-04-27T10:47:39.115Z,73.60
2023-04-27T10:50:14.319Z,69.80
2023-04-27T10:52:46.571Z,71.90
2023-04-27T10:55:16.879Z,71.60
2023-04-27T10:57:53.275Z,73.70
2023-04-27T11:00:45.051Z,74.60
2023-04-27T11:03:20.545Z,73.10
2023-04-27T11:05:49.363Z,73.70
2023-04-27T11:08:19.623Z,72.90
2023-04-27T11:10:50.304Z,74.90
2023-04-27T11:13:24.078Z,75.20
2023-04-27T11:15:57.772Z,73.40
2023-04-27T11:18:31.893Z,72.70
2023-04-27T11:21:23.595Z,71.30
2023-04-27T11:23:50.375Z,73.90
2023-04-27T11:26:23.745Z,73.10
2023-04-27T11:29:05.282Z,70.90
2023-04-27T11:31:49.216Z,72.70
2023-04-27T11:34:26.458Z,72.60
2023-04-27T11:39:38.998Z,72.00
2023-04-27T11:42:19.705Z,70.90
2023-04-27T11:45:07.994Z,71.40
2023-04-27T11:47:36.008Z,72.10
2023-04-27T11:50:07.857Z,71.30
2023-04-27T11:52:37.285Z,71.60
2023-04-27T11:55:05.412Z,72.10
2023-04-27T11:57:36.478Z,72.70
2023-04-27T12:00:12.112Z,71.70
2023-04-27T12:02:39.111Z,69.90
2023-04-27T12:05:07.729Z,69.00
2023-04-27T12:07:35.493Z,71.80
2023-04-27T12:10:02.385Z,70.40
2023-04-27T12:12:29.384Z,71.90
2023-04-27T12:14:56.282Z,70.30
2023-04-27T12:17:23.280Z,70.30
2023-04-27T12:19:50.230Z,70.60
2023-04-27T12:22:17.266Z,72.10
2023-04-27T12:24:44.215Z,71.60
2023-04-27T12:27:11.059Z,71.80
2023-04-27T12:29:38.096Z,70.00
2023-04-27T12:32:05.994Z,69.20
2023-04-27T12:34:33.195Z,68.60
2023-04-27T12:37:00.068Z,70.50
2023-04-27T12:39:26.966Z,68.70
2023-04-27T12:41:54.265Z,69.80
2023-04-27T12:44:22.049Z,69.00
2023-04-27T12:46:49.450Z,66.50
2023-04-27T12:49:17.250Z,67.70
2023-04-27T12:51:45.683Z,68.40
2023-04-27T12:54:12.977Z,67.30
2023-04-27T12:56:40.169Z,66.00
2023-04-27T12:59:07.078Z,66.70
2023-04-27T13:01:34.037Z,66.30
2023-04-27T13:04:03.770Z,65.50
2023-04-27T13:06:31.906Z,67.30
2023-04-27T13:08:59.859Z,67.90
2023-04-27T13:11:27.220Z,66.60
2023-04-27T13:13:55.077Z,66.90
2023-04-27T13:16:25.195Z,67.60
2023-04-27T13:18:53.419Z,68.30
2023-04-27T13:21:20.953Z,69.50
2023-04-27T13:23:48.106Z,69.70
2023-04-27T13:26:16.374Z,69.40
2023-04-27T13:28:43.453Z,69.50
2023-04-27T13:31:11.077Z,68.90
2023-04-27T13:33:43.805Z,67.60
2023-04-27T13:36:13.016Z,68.80
2023-04-27T13:38:40.730Z,69.90
2023-04-27T13:41:08.288Z,70.40
2023-04-27T13:43:35.643Z,70.70
2023-04-27T13:46:03.325Z,71.10
2023-04-27T13:48:30.889Z,70.10
2023-04-27T13:50:58.405Z,70.80
2023-04-27T13:53:26.622Z,70.70
2023-04-27T13:55:58.377Z,71.40
2023-04-27T13:58:28.963Z,68.50
2023-04-27T14:00:55.933Z,68.50
2023-04-27T14:03:23.226Z,68.60
2023-04-27T14:05:51.385Z,68.10
2023-04-27T14:08:19.063Z,67.70
2023-04-27T14:10:46.469Z,67.30
2023-04-27T14:13:13.587Z,67.30
2023-04-27T14:15:41.484Z,68.80
2023-04-27T14:18:09.346Z,67.90
2023-04-27T14:20:38.474Z,68.00
2023-04-27T14:23:06.907Z,68.30
2023-04-27T14:25:34.592Z,69.40
2023-04-27T14:28:04.220Z,68.60
2023-04-27T14:30:35.078Z,69.10
2023-04-27T14:33:02.741Z,69.10
2023-04-27T14:35:29.830Z,69.60
2023-04-27T14:38:01.894Z,70.00
2023-04-27T14:40:30.598Z,67.80
2023-04-27T14:42:58.510Z,68.70
2023-04-27T14:45:29.212Z,68.70
2023-04-27T14:47:58.051Z,66.80
2023-04-27T14:50:24.930Z,66.30
2023-04-27T14:52:51.800Z,66.40
2023-04-27T14:55:18.657Z,66.40
2023-04-27T14:57:45.483Z,66.90
2023-04-27T15:00:14.561Z,66.90
2023-04-27T15:02:41.434Z,67.90
2023-04-27T15:05:09.086Z,67.60
2023-04-27T15:07:36.151Z,68.80
2023-04-27T15:10:03.511Z,69.10
2023-04-27T15:12:30.360Z,69.30
2023-04-27T15:14:57.166Z,69.40
2023-04-27T15:17:24.126Z,69.00
2023-04-27T15:19:51.927Z,68.50
2023-04-27T15:22:18.724Z,69.40
2023-04-27T15:24:45.563Z,67.20
2023-04-27T15:27:13.302Z,67.40
2023-04-27T15:29:41.840Z,67.30
2023-04-27T15:32:08.677Z,67.50
2023-04-27T15:34:35.561Z,69.40
2023-04-27T15:37:03.551Z,69.70
2023-04-27T15:39:30.478Z,69.70
2023-04-27T15:41:59.516Z,69.60
2023-04-27T15:44:26.888Z,70.10
2023-04-27T15:46:53.908Z,70.50
2023-04-27T15:49:21.003Z,69.70
2023-04-27T15:51:47.843Z,70.30
2023-04-27T15:54:14.737Z,68.80
2023-04-27T15:56:41.602Z,69.20
2023-04-27T15:59:08.666Z,69.30
2023-04-27T16:01:35.662Z,69.30
2023-04-27T16:04:02.661Z,68.60
2023-04-27T16:06:36.867Z,68.20
2023-04-27T16:09:04.329Z,67.60
2023-04-27T16:11:31.507Z,67.00
2023-04-27T16:13:58.534Z,68.80
2023-04-27T16:16:25.482Z,69.60
2023-04-27T16:18:52.445Z,69.80
2023-04-27T16:21:19.234Z,69.70
2023-04-27T16:23:46.096Z,68.70
2023-04-27T16:26:12.897Z,68.90
2023-04-27T16:28:39.700Z,68.60
2023-04-27T16:31:06.875Z,69.80
2023-04-27T16:33:33.817Z,68.90
2023-04-27T16:36:00.666Z,69.80
2023-04-27T16:38:28.541Z,69.60
2023-04-27T16:40:56.181Z,69.90
2023-04-27T16:43:23.093Z,69.70
2023-04-27T16:45:50.069Z,70.40
2023-04-27T16:48:17.538Z,71.00
2023-04-27T16:50:44.349Z,71.00
2023-04-27T16:53:19.522Z,70.70
2023-04-27T16:55:46.753Z,70.60
2023-04-27T16:58:13.715Z,71.20
2023-04-27T17:00:40.815Z,71.70
2023-04-27T17:03:07.768Z,71.50
2023-04-27T17:05:34.611Z,71.80
2023-04-27T17:08:03.622Z,71.90
2023-04-27T17:10:32.259Z,72.10
2023-04-27T17:12:59.420Z,71.80
2023-04-27T17:15:28.466Z,72.00
2023-04-27T17:17:55.475Z,72.30
2023-04-27T17:20:22.539Z,72.60
2023-04-27T17:22:49.495Z,72.80
2023-04-27T17:25:16.907Z,72.90
2023-04-27T17:27:43.723Z,73.10
2023-04-27T17:30:10.991Z,73.40
2023-04-27T17:32:37.954Z,73.60
2023-04-27T17:35:05.553Z,74.00
2023-04-27T17:37:32.564Z,74.40
2023-04-27T17:39:59.546Z,74.60
2023-04-27T17:42:26.366Z,74.90
2023-04-27T17:44:53.239Z,75.30
2023-04-27T17:47:22.170Z,75.70
2023-04-27T17:49:49.553Z,76.00
2023-04-27T17:52:16.397Z,76.20
2023-04-27T17:54:43.375Z,76.40
2023-04-27T17:57:10.338Z,76.50
2023-04-27T17:59:37.236Z,76.80
2023-04-27T18:02:04.090Z,77.00
2023-04-27T18:04:31.188Z,77.10
2023-04-27T18:06:58.203Z,77.40
2023-04-27T18:09:26.274Z,77.60
2023-04-27T18:11:53.071Z,77.80
2023-04-27T18:14:19.867Z,77.90
2023-04-27T18:16:46.795Z,78.20
2023-04-27T18:19:13.815Z,78.40
2023-04-27T18:21:40.946Z,78.60
2023-04-27T18:24:08.564Z,78.80
2023-04-27T18:26:36.672Z,78.90
2023-04-27T18:29:03.835Z,79.00
2023-04-27T18:31:30.712Z,79.30
2023-04-27T18:33:57.632Z,79.50
2023-04-27T18:36:27.388Z,79.60
2023-04-27T18:38:55.322Z,79.70
2023-04-27T18:41:22.179Z,79.90
2023-04-27T18:43:49.008Z,80.70
2023-04-27T18:46:15.923Z,80.00
2023-04-27T18:48:42.797Z,80.20
2023-04-27T18:51:09.641Z,80.30
2023-04-27T18:53:36.664Z,80.40
2023-04-27T18:56:03.827Z,80.50
2023-04-27T18:58:30.622Z,80.70
2023-04-27T19:00:57.443Z,80.70
2023-04-27T19:03:24.416Z,80.90
2023-04-27T19:05:52.626Z,80.90
2023-04-27T19:08:19.395Z,81.00
2023-04-27T19:10:46.215Z,81.10
2023-04-27T19:13:13.117Z,81.10
2023-04-27T19:15:40.016Z,81.20
2023-04-27T19:18:11.039Z,81.20
2023-04-27T19:20:39.580Z,81.10
2023-04-27T19:23:07.944Z,81.20
2023-04-27T19:25:35.300Z,81.10
2023-04-27T19:28:02.168Z,81.10
2023-04-27T19:30:29.444Z,81.00
2023-04-27T19:32:56.309Z,80.90
2023-04-27T19:35:23.926Z,80.90
2023-04-27T19:37:51.053Z,80.80
2023-04-27T19:40:18.260Z,80.70
2023-04-27T19:42:45.483Z,80.70
2023-04-27T19:45:12.545Z,80.70
2023-04-27T19:47:39.712Z,80.70
2023-04-27T19:50:07.367Z,80.70
2023-04-27T19:52:34.267Z,80.80
2023-04-27T19:55:01.123Z,80.90
2023-04-27T19:57:27.992Z,81.00
2023-04-27T19:59:54.896Z,81.10
2023-04-27T20:02:21.875Z,81.10
2023-04-27T20:04:49.062Z,81.20
2023-04-27T20:07:16.165Z,81.30
2023-04-27T20:09:43.124Z,81.30
2023-04-27T20:12:23.679Z,81.30
2023-04-27T20:14:56.712Z,81.40
2023-04-27T20:17:26.172Z,81.20
2023-04-27T20:19:56.516Z,81.30
2023-04-27T20:22:24.065Z,81.30
2023-04-27T20:24:51.234Z,81.30
2023-04-27T20:27:18.472Z,81.50
2023-04-27T20:29:47.160Z,81.30
2023-04-27T20:32:14.114Z,81.20
2023-04-27T20:34:41.009Z,81.30
2023-04-27T20:37:07.930Z,81.30
2023-04-27T20:39:35.044Z,81.30
2023-04-27T20:42:01.895Z,81.30
2023-04-27T20:44:28.779Z,81.20
2023-04-27T20:46:55.875Z,81.20
2023-04-27T20:49:32.142Z,81.20
2023-04-27T20:52:02.163Z,81.20
2023-04-27T20:54:31.373Z,81.10
2023-04-27T20:57:00.594Z,81.00
2023-04-27T20:59:27.537Z,80.90
2023-04-27T21:01:54.339Z,80.80
2023-04-27T21:04:21.395Z,80.80
2023-04-27T21:06:48.400Z,80.70
2023-04-27T21:09:15.164Z,80.60
2023-04-27T21:11:41.952Z,80.50
2023-04-27T21:14:08.748Z,80.50
2023-04-27T21:16:35.633Z,80.40
2023-04-27T21:19:02.457Z,80.40
2023-04-27T21:21:29.266Z,80.30
2023-04-27T21:24:06.662Z,80.60
2023-04-27T21:26:34.642Z,80.20
2023-04-27T21:29:01.583Z,80.10
2023-04-27T21:31:28.518Z,80.10
2023-04-27T21:33:55.438Z,80.10
2023-04-27T21:36:22.257Z,80.10
2023-04-27T21:38:49.249Z,80.10
2023-04-27T21:41:17.351Z,80.10
2023-04-27T21:43:44.992Z,80.20
2023-04-27T21:46:11.942Z,80.10
2023-04-27T21:48:38.846Z,80.10
2023-04-27T21:51:05.763Z,80.00
2023-04-27T21:53:32.747Z,80.00
2023-04-27T21:56:00.547Z,80.10
2023-04-27T21:58:27.808Z,80.10
2023-04-27T22:00:55.260Z,80.20
2023-04-27T22:03:22.887Z,80.30
2023-04-27T22:05:50.260Z,80.30
2023-04-27T22:08:19.661Z,80.40
2023-04-27T22:10:47.204Z,80.40
2023-04-27T22:15:44.199Z,80.50
2023-04-27T22:18:11.016Z,80.40
2023-04-27T22:20:38.419Z,80.40
2023-04-27T22:23:05.228Z,81.10
2023-04-27T22:25:34.005Z,80.30
2023-04-27T22:28:01.615Z,80.30
2023-04-27T22:30:29.298Z,80.30
2023-04-27T22:32:56.711Z,80.30
2023-04-27T22:35:27.077Z,80.30
2023-04-27T22:37:59.965Z,80.30
2023-04-27T22:40:26.982Z,80.50
2023-04-27T22:42:55.082Z,80.50
2023-04-27T22:45:23.407Z,80.60
2023-04-27T22:47:50.860Z,80.60
2023-04-27T22:50:18.009Z,80.70
2023-04-27T22:52:45.156Z,80.60
2023-04-27T22:55:13.290Z,80.60
2023-04-27T22:57:41.423Z,80.50
2023-04-27T23:00:11.329Z,80.50
2023-04-27T23:02:39.738Z,80.40
2023-04-27T23:05:07.586Z,80.20
2023-04-27T23:07:35.015Z,80.30
2023-04-27T23:10:03.107Z,80.20
2023-04-27T23:12:31.301Z,80.30
2023-04-27T23:14:59.350Z,80.30
2023-04-27T23:17:30.489Z,80.20
2023-04-27T23:19:59.358Z,80.20
2023-04-27T23:22:27.631Z,80.30
2023-04-27T23:24:54.612Z,80.30
2023-04-27T23:27:22.519Z,80.40
2023-04-27T23:29:49.356Z,80.40
2023-04-27T23:32:16.805Z,80.50
2023-04-27T23:34:43.758Z,80.70
2023-04-27T23:37:10.614Z,80.80
2023-04-27T23:39:37.448Z,80.90
2023-04-27T23:42:04.509Z,81.10
2023-04-27T23:44:31.343Z,81.60
2023-04-27T23:46:58.370Z,82.10
2023-04-27T23:49:25.253Z,82.10
2023-04-27T23:51:52.874Z,82.10
2023-04-27T23:54:19.750Z,82.40
2023-04-27T23:56:47.106Z,82.20
2023-04-27T23:59:15.032Z,82.50
